Republic, Michigan
Current Conditions -  °F | °C
As of 10:17 PM on Saturday 25 Oct 2014 (Local Time) from KSAW Reporting Station
Clear Clear  
Wind Chill: 44°   Ceiling: Unl
Heat Index: 49°   Visibility: 10mi
Dew Point: 29°   Wind: 15mph
Humidity: 46%   Direction: 300°WNW
Pressure: 29.82"   Gusts: 25mph
Location:  46.41°N, 87.98°W
Report Text: KSAW 260217Z AUTO 30013G22KT 10SM CLR 10/M01 A2982 RMK AO2 T00951015
Loading
Personal Weather Stations






























Interactive Weather Map
Tropical Storm Tracking
New forecast layout! Learn more

10-Day Weather Forecast

Advertisements
Track Severe Weather on mobile